createdAt,value
2022-11-30T00:01:11.836Z,102342.75
2022-11-30T00:03:39.564Z,102350.69
2022-11-30T00:06:08.519Z,102349.88
2022-11-30T00:08:36.190Z,102356.81
2022-11-30T00:11:09.752Z,102348.91
2022-11-30T00:13:37.651Z,102356.97
2022-11-30T00:16:05.896Z,102356.97
2022-11-30T00:18:35.016Z,102359.47
2022-11-30T00:21:02.822Z,102353.22
2022-11-30T00:23:33.837Z,102352.38
2022-11-30T00:26:03.168Z,102350.44
2022-11-30T00:28:32.156Z,102352.28
2022-11-30T00:31:00.544Z,102341.56
2022-11-30T00:33:28.970Z,102352.16
2022-11-30T00:35:58.945Z,102357.44
2022-11-30T00:38:26.781Z,102356.72
2022-11-30T00:40:54.386Z,102352.38
2022-11-30T00:43:21.940Z,102347.81
2022-11-30T00:45:49.557Z,102348.78
2022-11-30T00:48:17.140Z,102355.88
2022-11-30T00:50:44.977Z,102353.22
2022-11-30T00:53:13.881Z,102356.09
2022-11-30T00:55:41.459Z,102357.66
2022-11-30T00:58:09.096Z,102351.53
2022-11-30T01:00:36.694Z,102355.97
2022-11-30T01:03:04.834Z,102358.75
2022-11-30T01:05:34.369Z,102358.75
2022-11-30T01:08:02.033Z,102356.22
2022-11-30T01:10:31.110Z,102357.06
2022-11-30T01:12:58.732Z,102363.31
2022-11-30T01:15:26.348Z,102362.59
2022-11-30T01:17:54.132Z,102366.78
2022-11-30T01:20:21.734Z,102363.31
2022-11-30T01:22:49.328Z,102365.13
2022-11-30T01:25:17.068Z,102372.91
2022-11-30T01:27:49.302Z,102377.97
2022-11-30T01:30:17.701Z,102382.28
2022-11-30T01:32:45.423Z,102381.34
2022-11-30T01:35:13.041Z,102380.38
2022-11-30T01:37:40.602Z,102381.13
2022-11-30T01:40:09.604Z,102383.63
2022-11-30T01:42:37.987Z,102386.25
2022-11-30T01:45:14.240Z,102383.63
2022-11-30T01:47:44.728Z,102386.25
2022-11-30T01:50:16.311Z,102383.63
2022-11-30T01:52:45.972Z,102384.34
2022-11-30T01:55:20.303Z,102383.25
2022-11-30T01:57:51.933Z,102381.44
2022-11-30T02:00:21.504Z,102387.59
2022-11-30T02:02:57.758Z,102381.34
2022-11-30T02:05:26.848Z,102375.06
2022-11-30T02:07:54.897Z,102385.53
2022-11-30T02:10:27.879Z,102381.97
2022-11-30T02:13:24.093Z,102390.47
2022-11-30T02:16:02.149Z,102389.41
2022-11-30T02:18:39.174Z,102387.72
2022-11-30T02:21:13.732Z,102397.09
2022-11-30T02:24:01.795Z,102395.16
2022-11-30T02:26:43.152Z,102403.94
2022-11-30T02:29:20.758Z,102399.50
2022-11-30T02:31:55.313Z,102393.13
2022-11-30T02:34:28.070Z,102397.56
2022-11-30T02:36:57.373Z,102393.13
2022-11-30T02:39:24.972Z,102396.84
2022-11-30T02:41:52.526Z,102393.22
2022-11-30T02:44:23.812Z,102393.47
2022-11-30T02:47:02.007Z,102389.97
2022-11-30T02:49:38.560Z,102395.25
2022-11-30T02:52:07.664Z,102387.47
2022-11-30T02:54:35.794Z,102385.69
2022-11-30T02:57:03.378Z,102386.63
2022-11-30T02:59:32.683Z,102386.53
2022-11-30T03:02:00.397Z,102389.97
2022-11-30T03:04:28.025Z,102389.16
2022-11-30T03:06:55.653Z,102394.44
2022-11-30T03:09:23.221Z,102382.41
2022-11-30T03:11:51.328Z,102384.94
2022-11-30T03:14:18.967Z,102382.28
2022-11-30T03:16:48.083Z,102390.22
2022-11-30T03:19:15.636Z,102383.50
2022-11-30T03:21:43.177Z,102381.72
2022-11-30T03:24:10.793Z,102383.63
2022-11-30T03:26:38.340Z,102376.44
2022-11-30T03:29:06.132Z,102382.53
2022-11-30T03:31:33.770Z,102380.97
2022-11-30T03:34:02.785Z,102391.69
2022-11-30T03:36:30.344Z,102387.25
2022-11-30T03:38:57.909Z,102394.44
2022-11-30T03:41:25.589Z,102393.72
2022-11-30T03:43:53.151Z,102400.47
2022-11-30T03:46:20.825Z,102399.72
2022-11-30T03:48:48.500Z,102407.66
2022-11-30T03:51:17.380Z,102399.59
2022-11-30T03:53:44.935Z,102404.16
2022-11-30T03:56:14.209Z,102395.50
2022-11-30T03:58:42.648Z,102397.53
2022-11-30T04:01:12.333Z,102401.75
2022-11-30T04:03:40.987Z,102400.69
2022-11-30T04:06:09.881Z,102409.09
2022-11-30T04:08:39.252Z,102405.75
2022-11-30T04:11:07.090Z,102408.50
2022-11-30T04:13:36.192Z,102404.75
2022-11-30T04:16:04.316Z,102405.50
2022-11-30T04:18:34.159Z,102409.81
2022-11-30T04:21:02.364Z,102411.59
2022-11-30T04:23:32.387Z,102408.88
2022-11-30T04:26:03.157Z,102423.78
2022-11-30T04:28:30.701Z,102424.00
2022-11-30T04:31:00.292Z,102429.06
2022-11-30T04:33:28.559Z,102428.06
2022-11-30T04:35:58.225Z,102419.44
2022-11-30T04:38:26.640Z,102421.94
2022-11-30T04:40:54.959Z,102426.19
2022-11-30T04:43:24.771Z,102418.25
2022-11-30T04:45:52.736Z,102417.50
2022-11-30T04:48:20.610Z,102426.19
2022-11-30T04:50:48.250Z,102421.84
2022-11-30T04:53:15.822Z,102427.00
2022-11-30T04:55:43.446Z,102429.53
2022-11-30T04:58:11.010Z,102433.97
2022-11-30T05:00:40.059Z,102426.88
2022-11-30T05:03:07.615Z,102432.78
2022-11-30T05:05:35.147Z,102439.03
2022-11-30T05:08:02.933Z,102432.03
2022-11-30T05:10:33.424Z,102442.63
2022-11-30T05:13:01.082Z,102443.47
2022-11-30T05:15:28.654Z,102434.59
2022-11-30T05:18:00.745Z,102444.22
2022-11-30T05:20:28.963Z,102447.81
2022-11-30T05:22:56.596Z,102443.38
2022-11-30T05:25:24.156Z,102452.97
2022-11-30T05:27:51.704Z,102446.63
2022-11-30T05:30:19.488Z,102444.91
2022-11-30T05:32:47.069Z,102455.50
2022-11-30T05:35:16.102Z,102460.66
2022-11-30T05:37:43.640Z,102458.84
2022-11-30T05:40:11.901Z,102459.00
2022-11-30T05:42:39.439Z,102462.47
2022-11-30T05:45:07.893Z,102467.53
2022-11-30T05:47:35.464Z,102468.34
2022-11-30T05:50:03.013Z,102472.69
2022-11-30T05:52:31.927Z,102469.94
2022-11-30T05:55:00.329Z,102466.44
2022-11-30T05:57:27.896Z,102468.34
2022-11-30T05:59:55.466Z,102462.97
2022-11-30T06:02:27.988Z,102465.47
2022-11-30T06:04:55.954Z,102466.44
2022-11-30T06:07:23.544Z,102473.53
2022-11-30T06:09:52.498Z,102472.59
2022-11-30T06:12:20.060Z,102476.88
2022-11-30T06:14:47.938Z,102474.25
2022-11-30T06:17:15.668Z,102484.59
2022-11-30T06:19:43.240Z,102480.28
2022-11-30T06:22:10.813Z,102482.78
2022-11-30T06:24:38.416Z,102490.00
2022-11-30T06:27:07.305Z,102497.81
2022-11-30T06:29:34.837Z,102489.16
2022-11-30T06:32:02.446Z,102492.66
2022-11-30T06:34:31.684Z,102496.84
2022-11-30T06:36:59.275Z,102494.31
2022-11-30T06:39:50.127Z,102498.78
2022-11-30T06:42:15.790Z,102505.75
2022-11-30T06:44:43.374Z,102508.38
2022-11-30T06:47:10.976Z,102501.31
2022-11-30T06:49:39.475Z,102498.78
2022-11-30T06:52:07.037Z,102500.44
2022-11-30T06:54:34.568Z,102502.25
2022-11-30T06:57:02.169Z,102504.78
2022-11-30T06:59:31.385Z,102507.44
2022-11-30T07:02:02.901Z,102511.88
2022-11-30T07:04:35.169Z,102514.53
2022-11-30T07:07:02.687Z,102517.16
2022-11-30T07:09:30.297Z,102514.53
2022-11-30T07:11:57.984Z,102516.31
2022-11-30T07:14:25.697Z,102517.31
2022-11-30T07:16:54.725Z,102522.59
2022-11-30T07:19:22.344Z,102519.94
2022-11-30T07:21:49.972Z,102516.56
2022-11-30T07:24:35.020Z,102513.06
2022-11-30T07:27:04.370Z,102514.16
2022-11-30T07:29:31.935Z,102518.59
2022-11-30T07:32:00.878Z,102528.47
2022-11-30T07:34:28.652Z,102528.34
2022-11-30T07:36:56.202Z,102524.72
2022-11-30T07:39:24.331Z,102527.97
2022-11-30T07:41:51.912Z,102533.03
2022-11-30T07:44:19.476Z,102531.34
2022-11-30T07:46:47.018Z,102534.84
2022-11-30T07:49:15.963Z,102526.66
2022-11-30T07:51:43.580Z,102530.16
2022-11-30T07:54:11.152Z,102530.03
2022-11-30T07:56:38.704Z,102529.06
2022-11-30T07:59:06.272Z,102524.50
2022-11-30T08:01:34.713Z,102534.13
2022-11-30T08:04:02.413Z,102537.47
2022-11-30T08:06:32.875Z,102539.41
2022-11-30T08:09:01.841Z,102539.19
2022-11-30T08:11:31.229Z,102545.19
2022-11-30T08:13:58.841Z,102549.03
2022-11-30T08:16:28.984Z,102540.75
2022-11-30T08:18:57.072Z,102545.19
2022-11-30T08:21:25.258Z,102545.94
2022-11-30T08:23:56.325Z,102543.28
2022-11-30T08:26:25.832Z,102551.09
2022-11-30T08:28:55.617Z,102558.06
2022-11-30T08:31:25.681Z,102563.00
2022-11-30T08:33:57.436Z,102564.69
2022-11-30T08:36:26.293Z,102565.31
2022-11-30T08:38:55.236Z,102573.25
2022-11-30T08:41:23.689Z,102573.47
2022-11-30T08:43:51.968Z,102576.97
2022-11-30T08:46:49.580Z,102577.91
2022-11-30T08:49:25.367Z,102584.06
2022-11-30T08:57:33.012Z,102589.72
2022-11-30T09:00:00.576Z,102590.66
2022-11-30T09:02:28.293Z,102595.88
2022-11-30T09:04:55.854Z,102599.31
2022-11-30T09:07:23.459Z,102605.13
2022-11-30T09:09:52.406Z,102600.31
2022-11-30T09:12:19.965Z,102604.13
2022-11-30T09:14:55.851Z,102608.00
2022-11-30T09:17:25.465Z,102606.31
2022-11-30T09:19:53.011Z,102613.69
2022-11-30T09:22:20.588Z,102613.78
2022-11-30T09:24:48.349Z,102613.44
2022-11-30T09:27:17.414Z,102612.13
2022-11-30T09:29:45.000Z,102611.03
2022-11-30T09:32:12.576Z,102618.66
2022-11-30T09:34:40.157Z,102615.13
2022-11-30T09:37:07.773Z,102615.63
2022-11-30T09:39:35.316Z,102620.94
2022-11-30T09:42:28.310Z,102623.72
2022-11-30T09:45:03.249Z,102621.31
2022-11-30T09:47:45.968Z,102616.00
2022-11-30T09:50:16.087Z,102612.28
2022-11-30T09:52:47.837Z,102618.16
2022-11-30T09:55:23.137Z,102612.84
2022-11-30T09:57:55.459Z,102625.28
2022-11-30T10:00:24.458Z,102616.94
2022-11-30T10:02:53.608Z,102613.09
2022-11-30T10:05:24.006Z,102613.22
2022-11-30T10:08:16.720Z,102615.25
2022-11-30T10:10:52.565Z,102607.19
2022-11-30T10:13:36.164Z,102611.25
2022-11-30T10:16:18.090Z,102609.47
2022-11-30T10:19:01.755Z,102607.44
2022-11-30T10:21:47.148Z,102607.28
2022-11-30T10:24:29.873Z,102610.19
2022-11-30T10:26:59.159Z,102610.91
2022-11-30T10:29:33.160Z,102610.53
2022-11-30T10:32:01.984Z,102614.72
2022-11-30T10:34:34.385Z,102610.19
2022-11-30T10:37:06.912Z,102600.78
2022-11-30T10:39:41.583Z,102602.59
2022-11-30T10:42:13.613Z,102599.69
2022-11-30T10:44:47.177Z,102602.47
2022-11-30T10:47:20.855Z,102601.16
2022-11-30T10:49:51.408Z,102602.72
2022-11-30T10:52:24.674Z,102596.00
2022-11-30T10:54:59.241Z,102592.88
2022-11-30T10:57:32.338Z,102588.53
2022-11-30T11:00:06.413Z,102593.75
2022-11-30T11:02:40.465Z,102601.78
2022-11-30T11:05:20.988Z,102595.28
2022-11-30T11:08:05.787Z,102596.38
2022-11-30T11:10:36.731Z,102602.25
2022-11-30T11:13:05.257Z,102607.56
2022-11-30T11:15:35.752Z,102597.47
2022-11-30T11:18:25.245Z,102601.91
2022-11-30T11:21:06.164Z,102603.34
2022-11-30T11:23:37.665Z,102600.22
2022-11-30T11:26:06.431Z,102599.38
2022-11-30T11:28:36.844Z,102603.94
2022-11-30T11:31:18.791Z,102602.63
2022-11-30T11:33:53.492Z,102599.97
2022-11-30T11:36:27.090Z,102606.97
2022-11-30T11:38:54.847Z,102608.66
2022-11-30T11:41:26.576Z,102602.38
2022-11-30T11:44:01.632Z,102592.28
2022-11-30T11:46:31.469Z,102592.03
2022-11-30T11:49:01.405Z,102602.50
2022-11-30T11:51:34.219Z,102595.25
2022-11-30T11:54:06.777Z,102601.28
2022-11-30T11:56:37.465Z,102588.91
2022-11-30T11:59:14.805Z,102598.66
2022-11-30T12:01:51.484Z,102599.00
2022-11-30T12:04:41.736Z,102602.72
2022-11-30T12:07:18.544Z,102602.72
2022-11-30T12:09:58.146Z,102609.84
2022-11-30T12:12:25.789Z,102604.91
2022-11-30T12:14:54.803Z,102599.03
2022-11-30T12:17:38.507Z,102608.53
2022-11-30T12:20:16.533Z,102610.47
2022-11-30T12:23:05.128Z,102609.50
2022-11-30T12:25:39.340Z,102615.22
2022-11-30T12:28:20.592Z,102601.28
2022-11-30T12:31:01.864Z,102616.78
2022-11-30T12:33:47.578Z,102620.63
2022-11-30T12:36:20.862Z,102613.53
2022-11-30T12:38:55.540Z,102615.56
2022-11-30T12:41:41.650Z,102620.06
2022-11-30T12:44:28.586Z,102622.47
2022-11-30T12:47:06.432Z,102621.00
2022-11-30T12:49:51.153Z,102621.25
2022-11-30T12:52:32.455Z,102614.88
2022-11-30T12:55:08.969Z,102620.78
2022-11-30T12:57:41.787Z,102614.28
2022-11-30T13:00:15.400Z,102613.44
2022-11-30T13:03:16.293Z,102619.34
2022-11-30T13:05:51.234Z,102629.31
2022-11-30T13:08:23.196Z,102628.09
2022-11-30T13:10:56.821Z,102633.88
2022-11-30T13:13:28.133Z,102629.66
2022-11-30T13:15:56.598Z,102634.47
2022-11-30T13:18:25.230Z,102629.75
2022-11-30T13:20:57.952Z,102640.00
2022-11-30T13:23:35.871Z,102634.72
2022-11-30T13:26:13.596Z,102638.94
2022-11-30T13:28:54.078Z,102638.69
2022-11-30T13:31:25.437Z,102638.06
2022-11-30T13:33:59.972Z,102640.97
2022-11-30T13:36:43.475Z,102646.25
2022-11-30T13:39:24.040Z,102635.06
2022-11-30T13:42:11.983Z,102634.25
2022-11-30T13:44:41.533Z,102637.97
2022-11-30T13:47:19.045Z,102634.72
2022-11-30T13:49:47.490Z,102640.22
2022-11-30T13:52:24.549Z,102632.53
2022-11-30T13:54:54.572Z,102634.56
2022-11-30T13:57:59.649Z,102636.25
2022-11-30T14:01:02.134Z,102640.56
2022-11-30T14:03:31.431Z,102636.97
2022-11-30T14:05:59.848Z,102642.38
2022-11-30T14:08:37.968Z,102646.84
2022-11-30T14:11:38.893Z,102651.50
2022-11-30T14:14:46.536Z,102646.31
2022-11-30T14:17:24.147Z,102656.06
2022-11-30T14:19:53.955Z,102654.41
2022-11-30T14:22:22.131Z,102657.88
2022-11-30T14:24:51.567Z,102660.31
2022-11-30T14:27:23.345Z,102659.22
2022-11-30T14:29:53.697Z,102657.19
2022-11-30T14:32:31.243Z,102659.09
2022-11-30T14:35:08.250Z,102652.63
2022-11-30T14:37:42.712Z,102655.81
2022-11-30T14:40:21.711Z,102660.31
2022-11-30T14:42:51.673Z,102657.28
2022-11-30T14:45:22.819Z,102659.91
2022-11-30T14:47:53.846Z,102663.88
2022-11-30T14:50:25.083Z,102663.97
2022-11-30T14:53:03.863Z,102671.81
2022-11-30T14:55:39.579Z,102664.91
2022-11-30T14:58:17.707Z,102665.75
2022-11-30T15:00:46.765Z,102666.84
2022-11-30T15:03:20.438Z,102668.78
2022-11-30T15:05:51.858Z,102670.56
2022-11-30T15:08:19.912Z,102668.06
2022-11-30T15:10:49.663Z,102673.56
2022-11-30T15:13:20.395Z,102670.06
2022-11-30T15:15:52.962Z,102669.09
2022-11-30T15:18:22.338Z,102669.94
2022-11-30T15:20:55.325Z,102669.09
2022-11-30T15:23:23.328Z,102678.97
2022-11-30T15:25:56.502Z,102667.53
2022-11-30T15:28:28.202Z,102675.38
2022-11-30T15:30:59.222Z,102675.38
2022-11-30T15:33:33.896Z,102671.25
2022-11-30T15:36:32.329Z,102678.25
2022-11-30T15:38:52.874Z,102677.38
2022-11-30T15:41:23.668Z,102673.78
2022-11-30T15:43:53.650Z,102676.66
2022-11-30T15:46:33.437Z,102668.75
2022-11-30T15:49:15.991Z,102672.59
2022-11-30T15:51:46.427Z,102665.28
2022-11-30T15:54:15.341Z,102671.03
2022-11-30T15:56:56.557Z,102681.81
2022-11-30T15:59:25.867Z,102679.19
2022-11-30T16:02:04.848Z,102677.50
2022-11-30T16:05:13.752Z,102685.56
2022-11-30T16:07:50.451Z,102685.56
2022-11-30T16:10:21.289Z,102683.63
2022-11-30T16:12:52.884Z,102681.97
2022-11-30T16:15:23.322Z,102680.34
2022-11-30T16:17:51.450Z,102689.38
2022-11-30T16:20:20.849Z,102689.03
2022-11-30T16:22:49.880Z,102689.13
2022-11-30T16:25:19.966Z,102690.22
2022-11-30T16:27:48.646Z,102687.47
2022-11-30T16:30:20.482Z,102689.13
2022-11-30T16:32:48.899Z,102696.22
2022-11-30T16:35:24.215Z,102691.69
2022-11-30T16:37:52.931Z,102697.91
2022-11-30T16:40:21.115Z,102704.28
2022-11-30T16:42:50.616Z,102709.44
2022-11-30T16:45:22.121Z,102707.66
2022-11-30T16:47:50.135Z,102708.63
2022-11-30T16:50:18.663Z,102708.41
2022-11-30T16:52:46.854Z,102714.63
2022-11-30T16:55:16.152Z,102715.09
2022-11-30T16:57:44.355Z,102711.50
2022-11-30T17:00:15.653Z,102709.66
2022-11-30T17:02:49.507Z,102720.38
2022-11-30T17:05:17.416Z,102716.66
2022-11-30T17:07:45.113Z,102727.00
2022-11-30T17:10:13.897Z,102731.34
2022-11-30T17:12:41.596Z,102724.38
2022-11-30T17:15:14.075Z,102719.06
2022-11-30T17:17:41.690Z,102727.00
2022-11-30T17:20:11.638Z,102727.00
2022-11-30T17:22:39.871Z,102735.78
2022-11-30T17:25:10.122Z,102728.81
2022-11-30T17:27:37.735Z,102728.81
2022-11-30T17:30:06.794Z,102731.06
2022-11-30T17:32:34.534Z,102731.06
2022-11-30T17:35:02.195Z,102728.53
2022-11-30T17:37:31.132Z,102724.09
2022-11-30T17:39:59.061Z,102731.50
2022-11-30T17:42:27.247Z,102732.69
2022-11-30T17:44:54.968Z,102732.69
2022-11-30T17:47:23.171Z,102730.16
2022-11-30T17:49:51.532Z,102732.28
2022-11-30T17:52:19.217Z,102742.84
2022-11-30T17:54:48.489Z,102742.22
2022-11-30T17:57:16.258Z,102744.16
2022-11-30T17:59:43.827Z,102741.28
2022-11-30T18:02:12.706Z,102744.88
2022-11-30T18:04:40.712Z,102750.16
2022-11-30T18:07:08.319Z,102758.22
2022-11-30T18:09:40.948Z,102753.88
2022-11-30T18:12:12.570Z,102753.88
2022-11-30T18:14:40.172Z,102750.59
2022-11-30T18:17:07.877Z,102760.44
2022-11-30T18:19:35.560Z,102765.81
2022-11-30T18:22:03.268Z,102773.03
2022-11-30T18:24:30.895Z,102763.41
2022-11-30T18:26:58.501Z,102771.47
2022-11-30T18:29:27.546Z,102773.03
2022-11-30T18:31:55.246Z,102776.84
2022-11-30T18:34:22.902Z,102774.94
2022-11-30T18:36:50.655Z,102779.69
2022-11-30T18:39:18.360Z,102781.03
2022-11-30T18:41:46.079Z,102779.97
2022-11-30T18:44:13.788Z,102778.16
2022-11-30T18:46:42.881Z,102786.22
2022-11-30T18:49:10.840Z,102786.94
2022-11-30T18:51:38.607Z,102783.38
2022-11-30T18:54:08.271Z,102795.50
2022-11-30T18:56:38.389Z,102790.53
2022-11-30T18:59:08.818Z,102784.22
2022-11-30T19:01:37.357Z,102783.38
2022-11-30T19:04:08.694Z,102794.03
2022-11-30T19:06:37.672Z,102791.50
2022-11-30T19:09:08.760Z,102787.88
2022-11-30T19:11:37.161Z,102795.09
2022-11-30T19:14:05.934Z,102794.78
2022-11-30T19:16:35.433Z,102786.22
2022-11-30T19:19:07.799Z,102793.94
2022-11-30T19:21:35.864Z,102789.81
2022-11-30T19:24:06.354Z,102794.16
2022-11-30T19:26:33.951Z,102795.09
2022-11-30T19:29:01.527Z,102789.72
2022-11-30T19:31:29.210Z,102802.72
2022-11-30T19:33:57.275Z,102799.94
2022-11-30T19:36:28.661Z,102792.97
2022-11-30T19:38:58.367Z,102792.00
2022-11-30T19:41:26.203Z,102789.28
2022-11-30T19:44:03.215Z,102792.22
2022-11-30T19:46:33.087Z,102787.69
2022-11-30T19:49:02.251Z,102797.22
2022-11-30T19:51:32.306Z,102795.28
2022-11-30T19:54:00.210Z,102798.78
2022-11-30T19:56:31.154Z,102795.50
2022-11-30T19:59:04.507Z,102799.63
2022-11-30T20:01:33.287Z,102803.72
2022-11-30T20:04:01.224Z,102801.44
2022-11-30T20:06:31.976Z,102794.56
2022-11-30T20:08:59.581Z,102793.94
2022-11-30T20:11:27.803Z,102797.66
2022-11-30T20:13:55.450Z,102801.97
2022-11-30T20:16:23.980Z,102802.81
2022-11-30T20:18:54.199Z,102806.53
2022-11-30T20:21:23.499Z,102804.59
2022-11-30T20:23:53.516Z,102813.72
2022-11-30T20:26:23.793Z,102806.31
2022-11-30T20:28:56.518Z,102811.16
2022-11-30T20:31:25.694Z,102814.53
2022-11-30T20:33:53.352Z,102813.59
2022-11-30T20:36:22.312Z,102822.16
2022-11-30T20:38:50.215Z,102823.81
2022-11-30T20:41:20.736Z,102818.00
2022-11-30T20:43:48.894Z,102818.22
2022-11-30T20:46:19.800Z,102821.16
2022-11-30T20:48:47.751Z,102821.94
2022-11-30T20:51:33.489Z,102827.84
2022-11-30T20:54:02.739Z,102823.91
2022-11-30T20:56:31.747Z,102823.56
2022-11-30T20:59:02.428Z,102825.03
2022-11-30T21:01:30.160Z,102828.91
2022-11-30T21:03:59.539Z,102830.38
2022-11-30T21:06:27.499Z,102830.88
2022-11-30T21:08:55.206Z,102836.09
2022-11-30T21:11:23.233Z,102832.38
2022-11-30T21:13:52.715Z,102834.91
2022-11-30T21:16:27.149Z,102836.50
2022-11-30T21:18:57.068Z,102838.16
2022-11-30T21:21:27.009Z,102829.28
2022-11-30T21:23:55.083Z,102834.69
2022-11-30T21:26:24.281Z,102832.28
2022-11-30T21:28:55.853Z,102830.44
2022-11-30T21:31:24.319Z,102839.44
2022-11-30T21:33:53.670Z,102846.31
2022-11-30T21:36:23.020Z,102855.22
2022-11-30T21:39:00.854Z,102847.28
2022-11-30T21:41:31.968Z,102838.50
2022-11-30T21:44:00.966Z,102849.09
2022-11-30T21:46:28.645Z,102850.03
2022-11-30T21:48:56.292Z,102843.06
2022-11-30T21:51:25.523Z,102836.19
2022-11-30T21:53:55.023Z,102841.25
2022-11-30T21:56:24.500Z,102835.97
2022-11-30T21:58:52.772Z,102843.16
2022-11-30T22:01:24.258Z,102834.50
2022-11-30T22:03:53.915Z,102838.81
2022-11-30T22:06:21.690Z,102839.59
2022-11-30T22:08:49.573Z,102842.22
2022-11-30T22:11:19.125Z,102840.44
2022-11-30T22:13:49.991Z,102840.66
2022-11-30T22:16:18.550Z,102844.13
2022-11-30T22:18:48.210Z,102849.41
2022-11-30T22:21:17.227Z,102845.72
2022-11-30T22:23:46.550Z,102846.44
2022-11-30T22:26:15.755Z,102844.66
2022-11-30T22:28:45.530Z,102844.44
2022-11-30T22:31:15.242Z,102843.66
2022-11-30T22:33:44.516Z,102843.44
2022-11-30T22:36:15.858Z,102844.53
2022-11-30T22:38:44.259Z,102846.31
2022-11-30T22:41:13.664Z,102854.69
2022-11-30T22:43:41.508Z,102855.13
2022-11-30T22:46:11.174Z,102851.06
2022-11-30T22:48:39.643Z,102851.28
2022-11-30T22:51:09.892Z,102854.63
2022-11-30T22:53:39.903Z,102856.56
2022-11-30T22:56:09.702Z,102854.84
2022-11-30T22:58:37.428Z,102855.72
2022-11-30T23:01:10.429Z,102848.13
2022-11-30T23:03:39.201Z,102854.34
2022-11-30T23:06:07.932Z,102848.44
2022-11-30T23:08:36.488Z,102842.41
2022-11-30T23:11:07.849Z,102844.94
2022-11-30T23:13:35.447Z,102850.34
2022-11-30T23:16:04.776Z,102853.31
2022-11-30T23:18:37.635Z,102847.16
2022-11-30T23:21:07.263Z,102854.50
2022-11-30T23:23:34.936Z,102848.25
2022-11-30T23:26:11.912Z,102855.44
2022-11-30T23:28:41.103Z,102846.25
2022-11-30T23:31:10.538Z,102852.38
2022-11-30T23:33:58.053Z,102851.88
2022-11-30T23:36:25.684Z,102848.38
2022-11-30T23:38:56.939Z,102851.03
2022-11-30T23:41:26.627Z,102853.44
2022-11-30T23:43:54.350Z,102856.09
2022-11-30T23:46:22.553Z,102857.88
2022-11-30T23:48:50.687Z,102861.59
2022-11-30T23:51:18.621Z,102850.31
2022-11-30T23:53:46.237Z,102855.59
2022-11-30T23:56:15.612Z,102853.88
2022-11-30T23:58:45.288Z,102854.94
